Uehling, NE

8:10 PM CDT on May 29, 2015 (GMT -0500)
Tekamah | | Change Station
CLOSE
Current Station
Airport
Location: Tekamah,
Elevation: 1027 ft
Nearby Weather Stations

Elev 1027 ft 41.76 °N, 96.18 °W | Updated 16 minutes ago

Overcast
Overcast
63 °F
Feels Like 63 °F
N
30
Wind Variable Wind from North
Gusts 37 mph

Today
High -- | Low -- °F
--% Chance of Precip.
Yesterday
High -- | Low -- °F
Precip. -- in
5:55 AM 8:51 PM
Waxing Gibbous, 87% visible
Pressure 29.96 in
Visibility 10.0 miles
Clouds Overcast 1200 ft
Dew Point 57 °F
Humidity 81%
Rainfall 0.15 in
Snow Depth Not available.
UV 0 out of 12
Pollen .80 out of 12
Air Quality Not available.
Flu Activity No Activity
METAR KTQE 300054Z AUTO 35026G32KT 10SM OVC012 17/14 A2998 RMK AO2 PK WND 35032/0052 PRESRR SLP145 T01720139

More Conditions Fewer Conditions

Pressure 29.96 in
Visibility 10.0 miles
Clouds Overcast 1200 ft
Dew Point 57 °F
Humidity 81%
Rainfall 0.15 in
Snow Depth Not available.
UV 0 out of 12
Pollen .80 out of 12
Air Quality Not available.
Flu Activity No Activity
METAR KTQE 300054Z AUTO 35026G32KT 10SM OVC012 17/14 A2998 RMK AO2 PK WND 35032/0052 PRESRR SLP145 T01720139

More Conditions Fewer Conditions

10-Day Weather Forecast

Almanac

Astronomy

May. 29, 2015 Rise Set
Actual Time
Civil Twilight
Nautical Twilight
Astronomical Twilight
Moon
Length of Visible Light
Length of Day
Tomorrow will be .
, % of the Moon is Illuminated

Today's Extremes

State Highs State Lows

Community

WunderPhotos

Upload Photos

1,825,413 photos uploaded!

WunderBlogs® & News

Nearby

Air Quality

  Air Quality AQ Index Pollutant
Not available.

Snow Depth

Station Depth Elevation

Earthquake Activity

City Distance Mag. Time & Date
Minimum magnitude displayed is 2.5.

Coastal Water Temperatures

Place Temperature

Stations

Nearby Weather Stations

Station Location Temp. Windchill Dew Point Humidity Wind Precip. Elev Updated Type